createdAt,value
2019-04-29T00:00:09.359Z,71
2019-04-29T00:01:11.523Z,70
2019-04-29T00:02:13.582Z,70
2019-04-29T00:03:15.665Z,70
2019-04-29T00:04:17.804Z,70
2019-04-29T00:05:20.579Z,70
2019-04-29T00:06:22.722Z,70
2019-04-29T00:07:24.788Z,70
2019-04-29T00:08:26.859Z,70
2019-04-29T00:09:31.844Z,70
2019-04-29T00:10:33.975Z,70
2019-04-29T00:11:36.102Z,71
2019-04-29T00:12:38.183Z,71
2019-04-29T00:13:40.706Z,71
2019-04-29T00:14:43.058Z,70
2019-04-29T00:15:45.138Z,70
2019-04-29T00:16:47.279Z,71
2019-04-29T00:17:49.337Z,71
2019-04-29T00:18:51.475Z,70
2019-04-29T00:19:53.597Z,70
2019-04-29T00:20:55.676Z,71
2019-04-29T00:21:58.092Z,70
2019-04-29T00:23:00.163Z,71
2019-04-29T00:24:05.102Z,72
2019-04-29T00:25:07.500Z,72
2019-04-29T00:26:09.619Z,71
2019-04-29T00:27:11.729Z,71
2019-04-29T00:28:13.813Z,71
2019-04-29T00:29:15.951Z,71
2019-04-29T00:30:18.021Z,71
2019-04-29T00:31:20.106Z,71
2019-04-29T00:32:22.555Z,72
2019-04-29T00:33:24.634Z,71
2019-04-29T00:34:27.097Z,71
2019-04-29T00:35:29.472Z,71
2019-04-29T00:36:31.552Z,71
2019-04-29T00:37:33.600Z,71
2019-04-29T00:38:35.686Z,71
2019-04-29T00:39:37.799Z,72
2019-04-29T00:40:40.272Z,72
2019-04-29T00:41:42.367Z,71
2019-04-29T00:42:44.508Z,72
2019-04-29T00:43:46.860Z,71
2019-04-29T00:44:48.991Z,71
2019-04-29T00:45:51.061Z,71
2019-04-29T00:46:53.135Z,71
2019-04-29T00:47:55.274Z,71
2019-04-29T00:48:57.723Z,72
2019-04-29T00:49:59.845Z,72
2019-04-29T00:51:01.985Z,71
2019-04-29T00:52:04.051Z,72
2019-04-29T00:53:06.116Z,72
2019-04-29T00:54:08.474Z,72
2019-04-29T00:55:10.868Z,72
2019-04-29T00:56:12.946Z,73
2019-04-29T00:57:15.074Z,72
2019-04-29T00:58:17.159Z,72
2019-04-29T00:59:19.213Z,72
2019-04-29T01:00:21.654Z,72
2019-04-29T01:01:23.720Z,72
2019-04-29T01:02:25.874Z,72
2019-04-29T01:03:27.969Z,72
2019-04-29T01:04:30.092Z,72
2019-04-29T01:05:32.172Z,73
2019-04-29T01:06:34.571Z,72
2019-04-29T01:07:37.112Z,72
2019-04-29T01:08:39.191Z,72
2019-04-29T01:09:41.313Z,72
2019-04-29T01:10:43.386Z,73
2019-04-29T01:11:45.466Z,72
2019-04-29T01:12:47.523Z,72
2019-04-29T01:13:49.614Z,71
2019-04-29T01:14:51.768Z,72
2019-04-29T01:15:54.170Z,71
2019-04-29T01:16:56.275Z,71
2019-04-29T01:17:58.361Z,71
2019-04-29T01:19:03.614Z,71
2019-04-29T01:20:05.834Z,71
2019-04-29T01:21:07.923Z,72
2019-04-29T01:22:10.057Z,71
2019-04-29T01:23:12.406Z,71
2019-04-29T01:24:14.559Z,71
2019-04-29T01:25:16.915Z,72
2019-04-29T01:26:18.983Z,72
2019-04-29T01:27:21.117Z,71
2019-04-29T01:28:23.218Z,71
2019-04-29T01:29:25.301Z,71
2019-04-29T01:30:27.659Z,71
2019-04-29T01:31:29.736Z,72
2019-04-29T01:32:31.839Z,71
2019-04-29T01:33:33.931Z,72
2019-04-29T01:34:35.996Z,73
2019-04-29T01:35:38.441Z,72
2019-04-29T01:36:40.816Z,72
2019-04-29T01:37:42.883Z,72
2019-04-29T01:38:45.027Z,73
2019-04-29T01:39:47.251Z,72
2019-04-29T01:40:49.417Z,72
2019-04-29T01:41:51.475Z,73
2019-04-29T01:42:53.560Z,73
2019-04-29T01:43:55.702Z,73
2019-04-29T01:44:57.776Z,72
2019-04-29T01:45:59.913Z,74
2019-04-29T01:47:02.393Z,73
2019-04-29T01:48:04.480Z,72
2019-04-29T01:49:06.838Z,73
2019-04-29T01:50:08.911Z,72
2019-04-29T01:51:11.049Z,72
2019-04-29T01:52:13.132Z,72
2019-04-29T01:53:15.265Z,72
2019-04-29T01:54:17.695Z,73
2019-04-29T01:55:19.765Z,72
2019-04-29T01:56:22.165Z,72
2019-04-29T01:57:24.252Z,72
2019-04-29T01:58:26.382Z,72
2019-04-29T01:59:28.445Z,72
2019-04-29T02:00:30.571Z,72
2019-04-29T02:01:32.649Z,71
2019-04-29T02:02:35.026Z,72
2019-04-29T02:03:37.108Z,72
2019-04-29T02:04:39.193Z,71
2019-04-29T02:05:41.300Z,71
2019-04-29T02:06:43.387Z,72
2019-04-29T02:07:45.456Z,71
2019-04-29T02:08:47.586Z,71
2019-04-29T02:09:49.761Z,72
2019-04-29T02:10:51.870Z,72
2019-04-29T02:11:54.341Z,72
2019-04-29T02:12:56.411Z,72
2019-04-29T02:13:58.524Z,72
2019-04-29T02:15:00.577Z,72
2019-04-29T02:16:02.748Z,72
2019-04-29T02:17:05.416Z,73
2019-04-29T02:18:07.576Z,72
2019-04-29T02:19:09.990Z,72
2019-04-29T02:20:12.052Z,72
2019-04-29T02:21:14.170Z,71
2019-04-29T02:22:16.466Z,71
2019-04-29T02:23:18.692Z,71
2019-04-29T02:24:20.784Z,71
2019-04-29T02:25:22.862Z,71
2019-04-29T02:26:24.988Z,72
2019-04-29T02:27:27.366Z,73
2019-04-29T02:28:29.493Z,72
2019-04-29T02:29:31.566Z,73
2019-04-29T02:30:33.948Z,72
2019-04-29T02:31:36.042Z,73
2019-04-29T02:32:38.063Z,73
2019-04-29T02:33:40.304Z,74
2019-04-29T02:34:42.661Z,73
2019-04-29T02:35:45.049Z,73
2019-04-29T02:36:47.574Z,75
2019-04-29T02:37:49.664Z,74
2019-04-29T02:38:51.769Z,73
2019-04-29T02:39:53.873Z,73
2019-04-29T02:40:55.951Z,73
2019-04-29T02:41:58.265Z,74
2019-04-29T02:43:00.650Z,74
2019-04-29T02:44:03.381Z,73
2019-04-29T02:45:05.753Z,73
2019-04-29T02:46:07.943Z,73
2019-04-29T02:47:10.132Z,73
2019-04-29T02:48:12.787Z,73
2019-04-29T02:49:15.190Z,73
2019-04-29T02:50:17.279Z,73
2019-04-29T02:51:19.639Z,73
2019-04-29T02:52:21.738Z,74
2019-04-29T02:53:23.827Z,73
2019-04-29T02:54:26.323Z,74
2019-04-29T02:55:28.794Z,74
2019-04-29T02:56:31.318Z,74
2019-04-29T02:57:33.733Z,74
2019-04-29T02:58:36.162Z,73
2019-04-29T02:59:38.299Z,74
2019-04-29T03:00:40.774Z,74
2019-04-29T03:01:43.562Z,74
2019-04-29T03:02:45.944Z,74
2019-04-29T03:03:48.013Z,73
2019-04-29T03:04:50.053Z,74
2019-04-29T03:05:52.144Z,74
2019-04-29T03:06:54.506Z,74
2019-04-29T03:07:56.588Z,73
2019-04-29T03:08:58.953Z,73
2019-04-29T03:10:01.512Z,74
2019-04-29T03:11:03.560Z,74
2019-04-29T03:12:06.746Z,74
2019-04-29T03:13:09.220Z,73
2019-04-29T03:14:11.969Z,74
2019-04-29T03:15:14.100Z,75
2019-04-29T03:16:16.469Z,74
2019-04-29T03:17:20.597Z,74
2019-04-29T03:18:22.671Z,74
2019-04-29T03:19:25.123Z,73
2019-04-29T03:20:27.486Z,75
2019-04-29T03:21:29.595Z,75
2019-04-29T03:22:32.008Z,75
2019-04-29T03:23:34.362Z,74
2019-04-29T03:24:36.828Z,74
2019-04-29T03:25:39.315Z,75
2019-04-29T03:26:41.370Z,75
2019-04-29T03:27:44.109Z,74
2019-04-29T03:28:46.496Z,74
2019-04-29T03:29:48.942Z,74
2019-04-29T03:30:51.715Z,74
2019-04-29T03:31:54.273Z,74
2019-04-29T03:32:56.985Z,75
2019-04-29T03:33:59.660Z,75
2019-04-29T03:35:02.852Z,75
2019-04-29T03:36:05.871Z,75
2019-04-29T03:37:08.037Z,75
2019-04-29T03:38:10.120Z,75
2019-04-29T03:39:12.161Z,75
2019-04-29T03:40:14.519Z,74
2019-04-29T03:41:16.841Z,74
2019-04-29T03:42:19.650Z,74
2019-04-29T03:43:22.690Z,75
2019-04-29T03:44:25.527Z,74
2019-04-29T03:45:28.024Z,75
2019-04-29T03:46:30.635Z,76
2019-04-29T03:47:33.019Z,74
2019-04-29T03:48:35.438Z,74
2019-04-29T03:49:37.565Z,74
2019-04-29T03:50:39.610Z,75
2019-04-29T03:51:41.988Z,75
2019-04-29T03:52:44.081Z,75
2019-04-29T03:53:46.152Z,75
2019-04-29T03:54:48.245Z,76
2019-04-29T03:55:50.608Z,75
2019-04-29T03:56:52.742Z,75
2019-04-29T03:57:55.887Z,74
2019-04-29T03:58:57.958Z,75
2019-04-29T04:00:00.436Z,75
2019-04-29T04:01:02.526Z,75
2019-04-29T04:02:04.953Z,75
2019-04-29T04:03:06.995Z,75
2019-04-29T04:04:09.437Z,76
2019-04-29T04:05:11.551Z,76
2019-04-29T04:06:13.937Z,76
2019-04-29T04:07:16.088Z,75
2019-04-29T04:08:18.181Z,74
2019-04-29T04:09:20.536Z,74
2019-04-29T04:10:22.819Z,75
2019-04-29T04:11:25.309Z,74
2019-04-29T04:12:27.452Z,75
2019-04-29T04:13:30.141Z,75
2019-04-29T04:14:32.879Z,75
2019-04-29T04:15:34.924Z,75
2019-04-29T04:16:37.281Z,75
2019-04-29T04:17:39.432Z,75
2019-04-29T04:18:41.859Z,75
2019-04-29T04:19:44.265Z,75
2019-04-29T04:20:46.352Z,76
2019-04-29T04:21:48.997Z,75
2019-04-29T04:22:51.077Z,75
2019-04-29T04:23:53.189Z,75
2019-04-29T04:24:55.855Z,75
2019-04-29T04:25:58.674Z,75
2019-04-29T04:27:01.381Z,75
2019-04-29T04:28:03.792Z,76
2019-04-29T04:29:05.868Z,76
2019-04-29T04:30:08.008Z,76
2019-04-29T04:31:10.109Z,76
2019-04-29T04:32:12.234Z,76
2019-04-29T04:33:14.269Z,77
2019-04-29T04:34:16.643Z,76
2019-04-29T04:35:18.743Z,77
2019-04-29T04:36:20.804Z,76
2019-04-29T04:37:23.228Z,77
2019-04-29T04:38:25.779Z,76
2019-04-29T04:39:27.879Z,76
2019-04-29T04:40:29.984Z,77
2019-04-29T04:41:32.340Z,76
2019-04-29T04:42:34.807Z,77
2019-04-29T04:43:37.922Z,76
2019-04-29T04:44:40.056Z,76
2019-04-29T04:45:43.153Z,76
2019-04-29T04:46:45.543Z,77
2019-04-29T04:47:48.295Z,77
2019-04-29T04:48:51.041Z,76
2019-04-29T04:49:53.456Z,76
2019-04-29T04:50:56.019Z,76
2019-04-29T04:51:58.134Z,76
2019-04-29T04:53:00.256Z,75
2019-04-29T04:54:02.940Z,77
2019-04-29T04:55:05.299Z,77
2019-04-29T04:56:07.827Z,75
2019-04-29T04:57:09.966Z,76
2019-04-29T04:58:12.030Z,75
2019-04-29T04:59:14.172Z,75
2019-04-29T05:00:20.402Z,76
2019-04-29T05:01:22.871Z,76
2019-04-29T05:02:26.055Z,76
2019-04-29T05:03:28.870Z,76
2019-04-29T05:04:31.017Z,76
2019-04-29T05:05:33.095Z,75
2019-04-29T05:06:35.226Z,75
2019-04-29T05:07:37.318Z,74
2019-04-29T05:08:39.397Z,74
2019-04-29T05:09:41.507Z,75
2019-04-29T05:10:43.621Z,75
2019-04-29T05:11:46.034Z,74
2019-04-29T05:12:48.385Z,74
2019-04-29T05:13:50.476Z,75
2019-04-29T05:14:52.605Z,75
2019-04-29T05:15:55.062Z,76
2019-04-29T05:16:57.220Z,76
2019-04-29T05:17:59.646Z,76
2019-04-29T05:19:01.815Z,75
2019-04-29T05:20:04.243Z,75
2019-04-29T05:21:06.603Z,75
2019-04-29T05:22:08.689Z,75
2019-04-29T05:23:10.767Z,75
2019-04-29T05:24:13.236Z,75
2019-04-29T05:25:15.303Z,76
2019-04-29T05:26:17.409Z,76
2019-04-29T05:27:19.545Z,76
2019-04-29T05:28:21.617Z,76
2019-04-29T05:29:23.752Z,76
2019-04-29T05:30:26.149Z,76
2019-04-29T05:31:28.288Z,75
2019-04-29T05:32:30.372Z,76
2019-04-29T05:33:32.418Z,76
2019-04-29T05:34:34.531Z,76
2019-04-29T05:35:39.795Z,77
2019-04-29T05:36:42.342Z,76
2019-04-29T05:37:44.460Z,77
2019-04-29T05:38:46.940Z,76
2019-04-29T05:39:49.354Z,76
2019-04-29T05:40:51.432Z,77
2019-04-29T05:41:53.564Z,77
2019-04-29T05:42:55.941Z,77
2019-04-29T05:43:58.411Z,77
2019-04-29T05:45:00.537Z,77
2019-04-29T05:46:02.863Z,77
2019-04-29T05:47:05.228Z,77
2019-04-29T05:48:07.320Z,77
2019-04-29T05:49:09.855Z,76
2019-04-29T05:50:18.848Z,76
2019-04-29T05:51:29.503Z,77
2019-04-29T05:52:41.560Z,77
2019-04-29T05:53:55.921Z,77
2019-04-29T05:55:01.170Z,76
2019-04-29T05:56:04.389Z,77
2019-04-29T05:57:06.517Z,77
2019-04-29T05:58:08.637Z,77
2019-04-29T05:59:14.646Z,77
2019-04-29T06:00:24.710Z,77
2019-04-29T06:01:26.787Z,76
2019-04-29T06:02:39.445Z,76
2019-04-29T06:03:45.436Z,76
2019-04-29T06:04:54.463Z,77
2019-04-29T06:05:56.538Z,77
2019-04-29T06:06:58.619Z,76
2019-04-29T06:08:03.871Z,77
2019-04-29T06:09:06.253Z,77
2019-04-29T06:10:08.341Z,77
2019-04-29T06:11:10.430Z,75
2019-04-29T06:12:12.522Z,76
2019-04-29T06:13:14.636Z,76
2019-04-29T06:14:16.705Z,76
2019-04-29T06:15:18.823Z,76
2019-04-29T06:16:23.407Z,77
2019-04-29T06:17:25.553Z,75
2019-04-29T06:18:27.626Z,76
2019-04-29T06:19:29.983Z,76
2019-04-29T06:20:32.121Z,75
2019-04-29T06:21:34.219Z,75
2019-04-29T06:22:43.966Z,75
2019-04-29T06:23:46.061Z,75
2019-04-29T06:24:48.165Z,75
2019-04-29T06:25:50.257Z,76
2019-04-29T06:26:52.951Z,76
2019-04-29T06:27:55.095Z,77
2019-04-29T06:28:57.174Z,76
2019-04-29T06:30:05.602Z,76
2019-04-29T06:31:07.692Z,77
2019-04-29T06:32:09.812Z,77
2019-04-29T06:33:12.301Z,77
2019-04-29T06:34:14.314Z,76
2019-04-29T06:35:16.846Z,76
2019-04-29T06:36:18.928Z,75
2019-04-29T06:37:21.281Z,75
2019-04-29T06:38:23.368Z,75
2019-04-29T06:39:25.441Z,75
2019-04-29T06:40:37.396Z,75
2019-04-29T06:41:47.422Z,75
2019-04-29T06:42:55.631Z,75
2019-04-29T06:44:17.154Z,75
2019-04-29T06:45:19.184Z,74
2019-04-29T06:46:21.264Z,74
2019-04-29T06:47:23.384Z,74
2019-04-29T06:48:25.477Z,75
2019-04-29T06:49:27.621Z,75
2019-04-29T06:50:29.708Z,75
2019-04-29T06:51:31.771Z,75
2019-04-29T06:52:34.188Z,75
2019-04-29T06:53:36.259Z,75
2019-04-29T06:54:38.389Z,75
2019-04-29T06:55:40.480Z,75
2019-04-29T06:56:42.949Z,75
2019-04-29T06:57:45.077Z,74
2019-04-29T06:58:49.847Z,74
2019-04-29T06:59:55.755Z,75
2019-04-29T07:01:03.858Z,75
2019-04-29T07:02:16.548Z,74
2019-04-29T07:03:27.141Z,74
2019-04-29T07:04:40.138Z,74
2019-04-29T07:05:42.182Z,74
2019-04-29T07:06:58.580Z,74
2019-04-29T07:08:00.890Z,74
2019-04-29T07:09:03.317Z,74
2019-04-29T07:10:05.448Z,75
2019-04-29T07:11:08.133Z,75
2019-04-29T07:12:14.685Z,74
2019-04-29T07:13:25.046Z,74
2019-04-29T07:14:39.055Z,74
2019-04-29T07:15:49.389Z,74
2019-04-29T07:16:51.526Z,74
2019-04-29T07:17:54.256Z,74
2019-04-29T07:18:56.350Z,75
2019-04-29T07:20:03.987Z,74
2019-04-29T07:21:13.530Z,74
2019-04-29T07:22:15.569Z,74
2019-04-29T07:23:17.650Z,74
2019-04-29T07:24:21.357Z,74
2019-04-29T07:25:30.742Z,74
2019-04-29T07:26:32.899Z,74
2019-04-29T07:27:45.036Z,74
2019-04-29T07:28:57.551Z,74
2019-04-29T07:30:09.224Z,74
2019-04-29T07:31:11.308Z,74
2019-04-29T07:32:13.865Z,73
2019-04-29T07:33:25.044Z,74
2019-04-29T07:34:40.022Z,74
2019-04-29T07:35:50.082Z,73
2019-04-29T07:36:59.828Z,72
2019-04-29T07:38:10.356Z,71
2019-04-29T07:39:13.100Z,70
2019-04-29T07:40:15.901Z,71
2019-04-29T07:41:21.489Z,68
2019-04-29T07:42:33.848Z,69
2019-04-29T07:43:44.659Z,70
2019-04-29T07:44:54.602Z,69
2019-04-29T07:46:06.355Z,69
2019-04-29T07:47:08.948Z,69
2019-04-29T07:48:11.051Z,68
2019-04-29T07:49:19.295Z,69
2019-04-29T07:50:28.923Z,69
2019-04-29T07:51:39.382Z,69
2019-04-29T07:52:51.593Z,69
2019-04-29T07:53:53.649Z,69
2019-04-29T07:54:57.083Z,67
2019-04-29T07:56:08.582Z,68
2019-04-29T07:57:18.818Z,66
2019-04-29T07:58:28.907Z,69
2019-04-29T07:59:40.246Z,66
2019-04-29T08:00:50.468Z,66
2019-04-29T08:02:01.853Z,65
2019-04-29T08:03:03.909Z,65
2019-04-29T08:04:05.998Z,64
2019-04-29T08:05:08.095Z,65
2019-04-29T08:06:10.645Z,66
2019-04-29T08:07:12.760Z,67
2019-04-29T08:08:23.599Z,67
2019-04-29T08:09:25.714Z,68
2019-04-29T08:10:30.553Z,67
2019-04-29T08:11:32.643Z,67
2019-04-29T08:12:34.749Z,67
2019-04-29T08:13:36.844Z,65
2019-04-29T08:14:38.996Z,66
2019-04-29T08:15:44.285Z,65
2019-04-29T08:16:46.419Z,65
2019-04-29T08:18:07.042Z,65
2019-04-29T08:19:19.968Z,65
2019-04-29T08:20:22.077Z,67
2019-04-29T08:21:24.176Z,66
2019-04-29T08:22:29.982Z,66
2019-04-29T08:23:42.823Z,66
2019-04-29T08:24:52.541Z,65
2019-04-29T08:26:04.966Z,66
2019-04-29T08:27:07.013Z,66
2019-04-29T08:28:09.082Z,67
2019-04-29T08:29:11.256Z,67
2019-04-29T08:30:13.622Z,67
2019-04-29T08:31:22.679Z,67
2019-04-29T08:32:24.780Z,67
2019-04-29T08:33:26.855Z,66
2019-04-29T08:34:28.996Z,65
2019-04-29T08:35:39.062Z,66
2019-04-29T08:36:41.147Z,65
2019-04-29T08:37:43.775Z,65
2019-04-29T08:38:46.144Z,66
2019-04-29T08:40:17.789Z,63
2019-04-29T08:41:30.411Z,65
2019-04-29T08:42:32.464Z,63
2019-04-29T08:43:34.541Z,62
2019-04-29T08:44:37.048Z,63
2019-04-29T08:45:41.149Z,63
2019-04-29T08:46:53.273Z,62
2019-04-29T08:47:55.313Z,62
2019-04-29T08:49:11.462Z,62
2019-04-29T08:50:16.736Z,61
2019-04-29T08:51:18.826Z,63
2019-04-29T08:52:21.532Z,62
2019-04-29T08:53:23.686Z,62
2019-04-29T08:54:25.823Z,61
2019-04-29T08:55:37.099Z,62
2019-04-29T08:57:04.768Z,61
2019-04-29T08:58:13.345Z,60
2019-04-29T08:59:15.434Z,61
2019-04-29T09:00:17.818Z,62
2019-04-29T09:01:19.907Z,60
2019-04-29T09:02:36.405Z,59
2019-04-29T09:03:48.129Z,61
2019-04-29T09:04:54.779Z,58
2019-04-29T09:06:06.841Z,60
2019-04-29T09:07:23.510Z,58
2019-04-29T09:08:35.147Z,58
2019-04-29T09:09:37.312Z,59
2019-04-29T09:10:39.677Z,58
2019-04-29T09:11:49.840Z,58
2019-04-29T09:12:51.924Z,58
2019-04-29T09:13:54.035Z,59
2019-04-29T09:14:56.140Z,58
2019-04-29T09:15:58.258Z,58
2019-04-29T09:17:00.637Z,57
2019-04-29T09:18:03.020Z,57
2019-04-29T09:19:05.153Z,57
2019-04-29T09:20:07.195Z,56
2019-04-29T09:21:09.297Z,56
2019-04-29T09:22:11.430Z,55
2019-04-29T09:23:13.501Z,55
2019-04-29T09:24:15.634Z,55
2019-04-29T09:25:28.478Z,54
2019-04-29T09:26:30.541Z,55
2019-04-29T09:27:32.699Z,55
2019-04-29T09:28:35.061Z,55
2019-04-29T09:29:37.857Z,54
2019-04-29T09:30:39.989Z,55
2019-04-29T09:31:42.071Z,55
2019-04-29T09:32:44.163Z,54
2019-04-29T09:34:07.687Z,54
2019-04-29T09:35:09.760Z,54
2019-04-29T09:36:15.855Z,54
2019-04-29T09:37:24.969Z,55
2019-04-29T09:38:27.287Z,55
2019-04-29T09:39:44.508Z,55
2019-04-29T09:40:46.707Z,55
2019-04-29T09:41:48.850Z,54
2019-04-29T09:42:52.762Z,54
2019-04-29T09:43:54.853Z,54
2019-04-29T09:44:56.947Z,54
2019-04-29T09:46:00.976Z,54
2019-04-29T09:47:10.694Z,55
2019-04-29T09:48:13.437Z,54
2019-04-29T09:49:15.604Z,53
2019-04-29T09:50:17.748Z,53
2019-04-29T09:51:31.116Z,52
2019-04-29T09:52:33.585Z,52
2019-04-29T09:53:35.944Z,52
2019-04-29T09:54:38.070Z,52
2019-04-29T09:55:41.974Z,51
2019-04-29T09:56:44.075Z,52
2019-04-29T09:57:46.542Z,51
2019-04-29T09:58:48.634Z,51
2019-04-29T09:59:50.803Z,52
2019-04-29T10:00:52.912Z,50
2019-04-29T10:01:56.934Z,51
2019-04-29T10:03:03.047Z,50
2019-04-29T10:04:05.157Z,49
2019-04-29T10:05:07.712Z,50
2019-04-29T10:06:13.087Z,49
2019-04-29T10:07:15.126Z,50
2019-04-29T10:08:17.391Z,49
2019-04-29T10:09:19.536Z,50
2019-04-29T10:10:21.997Z,50
2019-04-29T10:11:24.226Z,49
2019-04-29T10:12:26.671Z,49
2019-04-29T10:13:28.868Z,49
2019-04-29T10:14:30.959Z,50
2019-04-29T10:15:33.160Z,50
2019-04-29T10:16:37.849Z,50
2019-04-29T10:17:39.930Z,50
2019-04-29T10:18:42.320Z,49
2019-04-29T10:19:44.733Z,49
2019-04-29T10:20:46.991Z,50
2019-04-29T10:21:49.300Z,50
2019-04-29T10:22:55.662Z,50
2019-04-29T10:23:58.491Z,50
2019-04-29T10:25:00.735Z,49
2019-04-29T10:26:02.899Z,49
2019-04-29T10:27:08.141Z,50
2019-04-29T10:28:11.712Z,48
2019-04-29T10:29:20.739Z,49
2019-04-29T10:30:31.081Z,48
2019-04-29T10:31:34.475Z,48
2019-04-29T10:32:44.036Z,48
2019-04-29T10:33:50.109Z,49
2019-04-29T10:34:58.532Z,47
2019-04-29T10:36:00.880Z,47
2019-04-29T10:37:03.292Z,49
2019-04-29T10:38:05.431Z,49
2019-04-29T10:39:07.565Z,49
2019-04-29T10:40:16.889Z,48
2019-04-29T10:41:23.784Z,48
2019-04-29T10:42:32.471Z,48
2019-04-29T10:43:37.358Z,47
2019-04-29T10:44:40.824Z,48
2019-04-29T10:45:43.006Z,48
2019-04-29T10:46:45.184Z,47
2019-04-29T10:47:47.253Z,48
2019-04-29T10:48:49.359Z,48
2019-04-29T10:49:51.512Z,48
2019-04-29T10:50:54.957Z,49
2019-04-29T10:52:05.122Z,49
2019-04-29T10:53:10.873Z,48
2019-04-29T10:54:17.757Z,48
2019-04-29T10:55:19.847Z,48
2019-04-29T10:56:22.267Z,49
2019-04-29T10:57:24.409Z,47
2019-04-29T10:58:36.755Z,48
2019-04-29T10:59:49.948Z,48
2019-04-29T11:00:58.900Z,47
2019-04-29T11:02:16.153Z,48
2019-04-29T11:03:26.583Z,46
2019-04-29T11:04:38.523Z,48
2019-04-29T11:06:02.803Z,47
2019-04-29T11:07:27.854Z,48
2019-04-29T11:08:38.080Z,47
2019-04-29T11:09:53.087Z,47
2019-04-29T11:11:03.421Z,47
2019-04-29T11:12:08.567Z,48
2019-04-29T11:13:11.218Z,47
2019-04-29T11:14:13.329Z,46
2019-04-29T11:15:16.294Z,46
2019-04-29T11:16:18.396Z,45
2019-04-29T11:17:20.542Z,46
2019-04-29T11:18:25.758Z,45
2019-04-29T11:19:27.863Z,45
2019-04-29T11:20:30.004Z,42
2019-04-29T11:21:32.205Z,43
2019-04-29T11:22:39.873Z,44
2019-04-29T11:23:42.271Z,42
2019-04-29T11:24:44.352Z,44
2019-04-29T11:25:52.556Z,43
2019-04-29T11:26:54.944Z,42
2019-04-29T11:27:57.222Z,42
2019-04-29T11:28:59.980Z,43
2019-04-29T11:30:05.551Z,44
2019-04-29T11:31:19.684Z,42
2019-04-29T11:32:30.751Z,42
2019-04-29T11:33:42.138Z,41
2019-04-29T11:34:55.043Z,41
2019-04-29T11:36:06.351Z,43
2019-04-29T11:37:08.408Z,41
2019-04-29T11:38:10.581Z,40
2019-04-29T11:39:16.179Z,39
2019-04-29T11:40:44.773Z,41
2019-04-29T11:41:54.485Z,41
2019-04-29T11:42:57.253Z,40
2019-04-29T11:43:59.730Z,41
2019-04-29T11:45:04.500Z,40
2019-04-29T11:46:16.091Z,41
2019-04-29T11:47:26.760Z,39
2019-04-29T11:48:28.846Z,42
2019-04-29T11:49:31.264Z,39
2019-04-29T11:50:33.393Z,41
2019-04-29T11:52:10.851Z,39
2019-04-29T11:53:13.201Z,41
2019-04-29T11:54:19.116Z,40
2019-04-29T11:55:21.286Z,38
2019-04-29T11:56:23.382Z,41
2019-04-29T11:57:25.500Z,39
2019-04-29T11:58:27.629Z,40
2019-04-29T11:59:30.827Z,39
2019-04-29T12:00:33.311Z,38
2019-04-29T12:01:53.658Z,40
2019-04-29T12:02:55.759Z,39
2019-04-29T12:03:59.201Z,38
2019-04-29T12:05:10.609Z,39
2019-04-29T12:06:22.678Z,41
2019-04-29T12:07:35.333Z,39
2019-04-29T12:08:38.051Z,38
2019-04-29T12:09:40.158Z,40
2019-04-29T12:11:08.028Z,39
2019-04-29T12:12:15.217Z,39
2019-04-29T12:13:28.921Z,39
2019-04-29T12:14:39.593Z,38
2019-04-29T12:15:50.280Z,37
2019-04-29T12:16:55.683Z,38
2019-04-29T12:17:57.789Z,38
2019-04-29T12:18:59.886Z,38
2019-04-29T12:20:02.042Z,39
2019-04-29T12:21:04.154Z,38
2019-04-29T12:22:31.524Z,39
2019-04-29T12:23:34.038Z,38
2019-04-29T12:24:36.177Z,39
2019-04-29T12:25:38.619Z,38
2019-04-29T12:26:45.561Z,39
2019-04-29T12:28:19.900Z,39
2019-04-29T12:29:22.479Z,39
2019-04-29T12:30:24.852Z,39
2019-04-29T12:31:27.246Z,38
2019-04-29T12:32:29.379Z,39
2019-04-29T12:33:38.599Z,38
2019-04-29T12:34:40.859Z,39
2019-04-29T12:35:53.064Z,39
2019-04-29T12:36:57.639Z,38
2019-04-29T12:38:11.905Z,38
2019-04-29T12:39:13.978Z,39
2019-04-29T12:40:17.311Z,38
2019-04-29T12:41:32.411Z,40
2019-04-29T12:42:41.969Z,39
2019-04-29T12:43:44.076Z,39
2019-04-29T12:44:50.605Z,39
2019-04-29T12:45:54.563Z,39
2019-04-29T12:46:56.660Z,40
2019-04-29T12:47:58.757Z,40
2019-04-29T12:49:14.672Z,40
2019-04-29T12:50:23.554Z,41
2019-04-29T12:51:25.647Z,39
2019-04-29T12:52:27.770Z,38
2019-04-29T12:53:29.922Z,39
2019-04-29T12:54:32.023Z,38
2019-04-29T12:55:54.315Z,38
2019-04-29T12:56:57.014Z,37
2019-04-29T12:57:59.107Z,36
2019-04-29T12:59:03.982Z,37
2019-04-29T13:00:09.789Z,37
2019-04-29T13:01:11.970Z,36
2019-04-29T13:02:15.022Z,36
2019-04-29T13:03:17.071Z,37
2019-04-29T13:04:19.821Z,38
2019-04-29T13:05:22.041Z,37
2019-04-29T13:06:40.238Z,38
2019-04-29T13:07:44.337Z,37
2019-04-29T13:08:46.726Z,37
2019-04-29T13:09:49.244Z,36
2019-04-29T13:10:51.360Z,37
2019-04-29T13:12:20.986Z,37
2019-04-29T13:13:23.713Z,36
2019-04-29T13:14:35.408Z,37
2019-04-29T13:15:38.375Z,35
2019-04-29T13:16:40.865Z,35
2019-04-29T13:17:43.035Z,36
2019-04-29T13:19:10.401Z,38
2019-04-29T13:20:22.207Z,35
2019-04-29T13:21:24.310Z,36
2019-04-29T13:22:26.403Z,35
2019-04-29T13:24:25.180Z,36
2019-04-29T13:25:28.298Z,37
2019-04-29T13:26:43.445Z,36
2019-04-29T13:27:45.531Z,36
2019-04-29T13:29:02.405Z,37
2019-04-29T13:30:16.906Z,37
2019-04-29T13:31:39.607Z,35
2019-04-29T13:32:42.744Z,35
2019-04-29T13:33:53.345Z,37
2019-04-29T13:34:55.755Z,34
2019-04-29T13:35:57.955Z,33
2019-04-29T13:37:20.300Z,36
2019-04-29T13:38:22.349Z,34
2019-04-29T13:39:41.718Z,34
2019-04-29T13:40:43.898Z,33
2019-04-29T13:42:15.247Z,34
2019-04-29T13:43:27.677Z,33
2019-04-29T13:44:29.785Z,35
2019-04-29T13:45:31.947Z,34
2019-04-29T13:46:34.057Z,33
2019-04-29T13:47:36.194Z,35
2019-04-29T13:49:14.671Z,35
2019-04-29T13:50:41.606Z,34
2019-04-29T13:51:44.106Z,34
2019-04-29T13:52:46.248Z,36
2019-04-29T13:53:48.636Z,35
2019-04-29T13:54:53.324Z,34
2019-04-29T13:57:07.519Z,33
2019-04-29T13:58:30.397Z,33
2019-04-29T13:59:49.037Z,33
2019-04-29T14:01:02.172Z,34
2019-04-29T14:02:08.291Z,34
2019-04-29T14:03:13.610Z,33
2019-04-29T14:04:15.718Z,32
2019-04-29T14:05:26.561Z,33
2019-04-29T14:06:28.647Z,34
2019-04-29T14:07:30.755Z,33
2019-04-29T14:08:33.225Z,33
2019-04-29T14:09:41.357Z,34
2019-04-29T14:10:52.966Z,33
2019-04-29T14:13:09.962Z,32
2019-04-29T14:14:28.700Z,33
2019-04-29T14:17:37.809Z,34
2019-04-29T14:18:48.080Z,33
2019-04-29T14:19:52.432Z,34
2019-04-29T14:20:54.604Z,32
2019-04-29T14:21:56.733Z,32
2019-04-29T14:22:58.877Z,32
2019-04-29T14:24:00.977Z,32
2019-04-29T14:25:03.492Z,33
2019-04-29T14:26:05.597Z,32
2019-04-29T14:27:08.012Z,32
2019-04-29T14:28:10.152Z,32
2019-04-29T14:29:12.287Z,33
2019-04-29T14:30:14.385Z,36
2019-04-29T14:31:24.973Z,34
2019-04-29T14:32:49.859Z,34
2019-04-29T14:34:01.360Z,33
2019-04-29T14:35:13.506Z,32
2019-04-29T14:36:19.814Z,31
2019-04-29T14:37:28.093Z,33
2019-04-29T14:38:30.913Z,32
2019-04-29T14:39:39.083Z,31
2019-04-29T14:40:44.622Z,31
2019-04-29T14:41:46.729Z,32
2019-04-29T14:43:31.154Z,33
2019-04-29T14:44:34.434Z,33
2019-04-29T14:45:36.535Z,31
2019-04-29T14:46:39.097Z,32
2019-04-29T14:47:41.478Z,33
2019-04-29T14:48:43.903Z,33
2019-04-29T14:49:46.018Z,32
2019-04-29T14:50:56.542Z,33
2019-04-29T14:51:58.926Z,32
2019-04-29T14:53:01.031Z,32
2019-04-29T14:54:08.234Z,33
2019-04-29T14:55:10.611Z,32
2019-04-29T14:56:16.246Z,31
2019-04-29T14:57:18.341Z,31
2019-04-29T14:58:20.440Z,32
2019-04-29T14:59:23.878Z,32
2019-04-29T15:00:27.495Z,31
2019-04-29T15:01:30.844Z,31
2019-04-29T15:02:33.531Z,31
2019-04-29T15:03:35.906Z,32
2019-04-29T15:04:38.501Z,33
2019-04-29T15:05:41.519Z,31
2019-04-29T15:06:44.351Z,29
2019-04-29T15:07:46.796Z,32
2019-04-29T15:08:49.765Z,31
2019-04-29T15:09:59.654Z,31
2019-04-29T15:11:11.447Z,31
2019-04-29T15:12:24.827Z,31
2019-04-29T15:13:27.618Z,31
2019-04-29T15:14:32.094Z,31
2019-04-29T15:15:36.500Z,32
2019-04-29T15:16:40.874Z,32
2019-04-29T15:17:47.349Z,33
2019-04-29T15:18:51.822Z,32
2019-04-29T15:19:58.556Z,31
2019-04-29T15:21:09.750Z,31
2019-04-29T15:22:13.106Z,31
2019-04-29T15:23:33.703Z,32
2019-04-29T15:24:35.805Z,31
2019-04-29T15:25:37.955Z,31
2019-04-29T15:26:40.076Z,32
2019-04-29T15:27:42.235Z,30